Time,TemperatureF,DewpointF,PressureIn,WindDirection,WindDirectionDegrees,WindSpeedMPH,WindSpeedGustMPH,Humidity,HourlyPrecipIn,Conditions,Clouds,dailyrainin,SoftwareType,DateUTC
2013-04-10 00:00:00,32.0,30.5,30.16,East,90,0.0,22.0,94,0.00,,,0.00,Wunderground v.1.15,2013-04-10 03:00:00,
2013-04-10 00:10:00,32.0,30.7,30.16,East,91,0.0,22.0,95,0.00,,,0.00,Wunderground v.1.15,2013-04-10 03:10:00,
2013-04-10 00:20:00,32.0,30.7,30.16,East,90,0.0,22.0,95,0.00,,,0.00,Wunderground v.1.15,2013-04-10 03:20:00,
2013-04-10 00:30:00,31.9,30.6,30.16,East,91,0.0,22.0,95,0.00,,,0.00,Wunderground v.1.15,2013-04-10 03:30:00,
2013-04-10 00:40:00,31.8,30.5,30.16,East,90,0.0,22.0,95,0.00,,,0.00,Wunderground v.1.15,2013-04-10 03:40:00,
2013-04-10 00:50:00,31.8,30.5,30.15,East,91,0.0,22.0,95,0.00,,,0.00,Wunderground v.1.15,2013-04-10 03:50:00,
2013-04-10 01:00:00,31.8,30.5,30.15,East,91,0.0,22.0,95,0.00,,,0.00,Wunderground v.1.15,2013-04-10 04:00:00,
2013-04-10 01:10:00,31.9,30.6,30.14,ESE,113,0.0,22.0,95,0.00,,,0.00,Wunderground v.1.15,2013-04-10 04:10:00,
2013-04-10 01:20:00,32.0,30.7,30.13,SE,124,0.0,22.0,95,0.00,,,0.00,Wunderground v.1.15,2013-04-10 04:20:00,
2013-04-10 01:30:00,31.8,30.5,30.12,ESE,119,1.0,1.0,95,0.00,,,0.00,Wunderground v.1.15,2013-04-10 04:30:00,
2013-04-10 01:40:00,31.7,30.4,30.13,ESE,118,0.0,22.0,95,0.00,,,0.00,Wunderground v.1.15,2013-04-10 04:40:00,
2013-04-10 01:50:00,31.7,30.4,30.13,ESE,118,0.0,22.0,95,0.00,,,0.00,Wunderground v.1.15,2013-04-10 04:50:00,
2013-04-10 02:00:00,31.7,30.4,30.12,ESE,120,0.0,22.0,95,0.00,,,0.00,Wunderground v.1.15,2013-04-10 05:00:00,
2013-04-10 02:10:00,31.6,30.3,30.12,ESE,118,0.0,22.0,95,0.00,,,0.00,Wunderground v.1.15,2013-04-10 05:10:00,
2013-04-10 02:20:00,31.6,30.3,30.11,ESE,118,0.0,22.0,95,0.00,,,0.00,Wunderground v.1.15,2013-04-10 05:20:00,
2013-04-10 02:30:00,31.5,30.2,30.11,ESE,119,0.0,22.0,95,0.00,,,0.00,Wunderground v.1.15,2013-04-10 05:30:00,
2013-04-10 02:40:00,31.4,30.4,30.11,ESE,118,0.0,22.0,96,0.00,,,0.00,Wunderground v.1.15,2013-04-10 05:40:00,
2013-04-10 02:50:00,31.5,30.5,30.10,ESE,118,0.0,22.0,96,0.00,,,0.00,Wunderground v.1.15,2013-04-10 05:50:00,
2013-04-10 03:00:00,31.5,30.5,30.09,ESE,120,0.0,22.0,96,0.00,,,0.00,Wunderground v.1.15,2013-04-10 06:00:00,
2013-04-10 03:10:00,31.5,30.5,30.09,ESE,118,0.0,22.0,96,0.00,,,0.00,Wunderground v.1.15,2013-04-10 06:10:00,
2013-04-10 03:20:00,31.5,30.5,30.08,ESE,118,0.0,22.0,96,0.00,,,0.00,Wunderground v.1.15,2013-04-10 06:20:00,
2013-04-10 03:30:00,31.5,30.5,30.08,ESE,119,0.0,22.0,96,0.00,,,0.00,Wunderground v.1.15,2013-04-10 06:30:00,
2013-04-10 03:40:00,31.4,30.4,30.07,ESE,119,0.0,22.0,96,0.00,,,0.00,Wunderground v.1.15,2013-04-10 06:40:00,
2013-04-10 03:50:00,31.5,30.5,30.07,ESE,119,0.0,22.0,96,0.00,,,0.00,Wunderground v.1.15,2013-04-10 06:50:00,
2013-04-10 04:00:00,31.4,30.4,30.07,ESE,118,0.0,22.0,96,0.00,,,0.00,Wunderground v.1.15,2013-04-10 07:00:00,
2013-04-10 04:10:00,31.3,30.3,30.07,ESE,119,0.0,22.0,96,0.00,,,0.00,Wunderground v.1.15,2013-04-10 07:10:00,
2013-04-10 04:20:00,31.2,30.2,30.07,ESE,119,0.0,22.0,96,0.00,,,0.00,Wunderground v.1.15,2013-04-10 07:20:00,
2013-04-10 04:30:00,31.0,30.0,30.07,ESE,118,0.0,22.0,96,0.00,,,0.00,Wunderground v.1.15,2013-04-10 07:30:00,
2013-04-10 04:40:00,30.9,29.9,30.07,ESE,120,0.0,22.0,96,0.00,,,0.00,Wunderground v.1.15,2013-04-10 07:40:00,
2013-04-10 04:50:00,30.9,29.9,30.07,ESE,120,0.0,22.0,96,0.00,,,0.00,Wunderground v.1.15,2013-04-10 07:50:00,
2013-04-10 05:00:00,30.9,29.9,30.07,ESE,119,0.0,22.0,96,0.00,,,0.00,Wunderground v.1.15,2013-04-10 08:00:00,
2013-04-10 05:10:00,31.1,30.1,30.06,ESE,118,0.0,22.0,96,0.00,,,0.00,Wunderground v.1.15,2013-04-10 08:10:00,
2013-04-10 05:20:00,31.2,30.2,30.06,ESE,119,0.0,22.0,96,0.00,,,0.00,Wunderground v.1.15,2013-04-10 08:20:00,
2013-04-10 05:30:00,31.2,30.2,30.06,ESE,118,0.0,22.0,96,0.00,,,0.00,Wunderground v.1.15,2013-04-10 08:30:00,
2013-04-10 05:40:00,31.3,30.3,30.06,SSE,156,0.0,22.0,96,0.00,,,0.00,Wunderground v.1.15,2013-04-10 08:40:00,
2013-04-10 05:50:00,31.3,30.3,30.06,SSE,156,0.0,22.0,96,0.00,,,0.00,Wunderground v.1.15,2013-04-10 08:50:00,
2013-04-10 06:00:00,31.3,30.3,30.07,SSE,156,0.0,22.0,96,0.00,,,0.00,Wunderground v.1.15,2013-04-10 09:00:00,
2013-04-10 06:10:00,31.4,30.4,30.07,SSE,156,0.0,22.0,96,0.00,,,0.00,Wunderground v.1.15,2013-04-10 09:10:00,
2013-04-10 06:20:00,31.4,30.4,30.06,SSE,156,0.0,22.0,96,0.00,,,0.00,Wunderground v.1.15,2013-04-10 09:20:00,
2013-04-10 06:30:00,31.5,30.5,30.07,SSE,156,0.0,22.0,96,0.00,,,0.00,Wunderground v.1.15,2013-04-10 09:30:00,
2013-04-10 06:40:00,31.6,30.6,30.07,SSE,157,0.0,22.0,96,0.00,,,0.00,Wunderground v.1.15,2013-04-10 09:40:00,
2013-04-10 06:50:00,31.6,30.6,30.07,SSE,156,0.0,22.0,96,0.00,,,0.00,Wunderground v.1.15,2013-04-10 09:50:00,
2013-04-10 07:00:00,31.6,30.6,30.07,SSE,156,0.0,22.0,96,0.00,,,0.00,Wunderground v.1.15,2013-04-10 10:00:00,
2013-04-10 07:10:00,31.7,30.7,30.07,SSE,156,0.0,22.0,96,0.00,,,0.00,Wunderground v.1.15,2013-04-10 10:10:00,
2013-04-10 07:20:00,31.8,31.0,30.06,SSE,156,0.0,22.0,97,0.00,,,0.00,Wunderground v.1.15,2013-04-10 10:20:00,
2013-04-10 07:30:00,31.8,31.0,30.06,SE,139,0.0,22.0,97,0.00,,,0.00,Wunderground v.1.15,2013-04-10 10:30:00,
2013-04-10 07:40:00,31.9,31.1,30.06,SE,136,0.0,22.0,97,0.00,,,0.00,Wunderground v.1.15,2013-04-10 10:40:00,
2013-04-10 07:50:00,32.0,31.2,30.06,SSW,200,1.0,1.0,97,0.00,,,0.00,Wunderground v.1.15,2013-04-10 10:50:00,
2013-04-10 08:00:00,32.2,31.4,30.06,South,190,1.0,1.0,97,0.00,,,0.00,Wunderground v.1.15,2013-04-10 11:00:00,
2013-04-10 08:10:00,32.3,31.5,30.06,SSW,198,1.0,22.0,97,0.00,,,0.00,Wunderground v.1.15,2013-04-10 11:10:00,
2013-04-10 08:20:00,32.4,31.6,30.06,SSE,160,2.0,22.0,97,0.00,,,0.00,Wunderground v.1.15,2013-04-10 11:20:00,
2013-04-10 08:30:00,32.5,31.7,30.06,SSE,151,2.0,22.0,97,0.00,,,0.00,Wunderground v.1.15,2013-04-10 11:30:00,
2013-04-10 08:40:00,32.6,31.8,30.05,South,183,2.0,22.0,97,0.00,,,0.00,Wunderground v.1.15,2013-04-10 11:40:00,
2013-04-10 08:50:00,32.7,31.9,30.05,South,183,2.0,22.0,97,0.00,,,0.00,Wunderground v.1.15,2013-04-10 11:50:00,
2013-04-10 09:00:00,32.9,32.1,30.05,SSE,163,3.0,22.0,97,0.00,,,0.00,Wunderground v.1.15,2013-04-10 12:00:00,
2013-04-10 09:10:00,33.1,32.1,30.05,SE,143,2.0,22.0,96,0.00,,,0.00,Wunderground v.1.15,2013-04-10 12:10:00,
2013-04-10 09:20:00,33.1,32.1,30.05,South,169,3.0,3.0,96,0.00,,,0.00,Wunderground v.1.15,2013-04-10 12:20:00,
2013-04-10 09:30:00,33.3,32.3,30.04,SE,136,2.0,22.0,96,0.00,,,0.00,Wunderground v.1.15,2013-04-10 12:30:00,
2013-04-10 09:40:00,33.6,32.6,30.04,SSE,159,3.0,3.0,96,0.00,,,0.00,Wunderground v.1.15,2013-04-10 12:40:00,
2013-04-10 09:50:00,33.9,32.9,30.03,South,191,3.0,22.0,96,0.00,,,0.00,Wunderground v.1.15,2013-04-10 12:50:00,
2013-04-10 10:00:00,34.1,32.8,30.03,SE,146,3.0,3.0,95,0.00,,,0.00,Wunderground v.1.15,2013-04-10 13:00:00,
2013-04-10 10:10:00,34.2,32.9,30.03,SSE,155,4.0,4.0,95,0.00,,,0.00,Wunderground v.1.15,2013-04-10 13:10:00,
2013-04-10 10:20:00,34.4,33.1,30.04,South,179,3.0,22.0,95,0.00,,,0.00,Wunderground v.1.15,2013-04-10 13:20:00,
2013-04-10 10:30:00,34.8,33.5,30.03,South,187,2.0,22.0,95,0.00,,,0.00,Wunderground v.1.15,2013-04-10 13:30:00,
2013-04-10 10:40:00,35.2,33.9,30.04,South,181,3.0,22.0,95,0.00,,,0.00,Wunderground v.1.15,2013-04-10 13:40:00,
2013-04-10 10:50:00,35.6,34.3,30.04,SSE,158,4.0,4.0,95,0.00,,,0.00,Wunderground v.1.15,2013-04-10 13:50:00,
2013-04-10 11:00:00,35.8,34.5,30.04,South,183,3.0,3.0,95,0.00,,,0.01,Wunderground v.1.15,2013-04-10 14:00:00,
2013-04-10 11:10:00,35.9,34.6,30.04,SE,132,3.0,22.0,95,0.00,,,0.01,Wunderground v.1.15,2013-04-10 14:10:00,
2013-04-10 11:20:00,36.0,34.7,30.04,SSW,204,3.0,22.0,95,0.00,,,0.01,Wunderground v.1.15,2013-04-10 14:20:00,
2013-04-10 11:30:00,36.2,34.6,30.03,SSE,147,3.0,22.0,94,0.00,,,0.01,Wunderground v.1.15,2013-04-10 14:30:00,
2013-04-10 11:40:00,36.5,34.9,30.03,SSW,193,3.0,22.0,94,0.00,,,0.01,Wunderground v.1.15,2013-04-10 14:40:00,
2013-04-10 11:50:00,36.6,35.0,30.03,South,171,3.0,22.0,94,0.00,,,0.01,Wunderground v.1.15,2013-04-10 14:50:00,
2013-04-10 12:00:00,36.7,35.1,30.02,South,169,4.0,22.0,94,0.00,,,0.01,Wunderground v.1.15,2013-04-10 15:00:00,
2013-04-10 12:10:00,36.7,35.4,30.02,SSW,195,3.0,3.0,95,0.00,,,0.01,Wunderground v.1.15,2013-04-10 15:10:00,
2013-04-10 12:20:00,37.1,35.8,30.01,South,187,2.0,22.0,95,0.00,,,0.01,Wunderground v.1.15,2013-04-10 15:20:00,
2013-04-10 12:30:00,37.4,36.1,30.01,SW,236,3.0,22.0,95,0.00,,,0.01,Wunderground v.1.15,2013-04-10 15:30:00,
2013-04-10 12:40:00,37.4,35.8,30.01,SSW,205,2.0,22.0,94,0.00,,,0.01,Wunderground v.1.15,2013-04-10 15:40:00,
2013-04-10 12:50:00,37.6,36.0,30.01,SW,231,2.0,2.0,94,0.00,,,0.01,Wunderground v.1.15,2013-04-10 15:50:00,
2013-04-10 13:00:00,37.9,36.3,30.01,West,266,2.0,22.0,94,0.00,,,0.01,Wunderground v.1.15,2013-04-10 16:00:00,
2013-04-10 13:10:00,38.1,36.5,30.00,WSW,255,2.0,22.0,94,0.00,,,0.01,Wunderground v.1.15,2013-04-10 16:10:00,
2013-04-10 13:20:00,38.4,36.6,30.00,WSW,255,2.0,22.0,93,0.00,,,0.01,Wunderground v.1.15,2013-04-10 16:20:00,
2013-04-10 13:30:00,38.7,36.9,30.00,WSW,240,2.0,22.0,93,0.00,,,0.01,Wunderground v.1.15,2013-04-10 16:30:00,
2013-04-10 13:40:00,38.9,36.8,30.00,West,275,2.0,22.0,92,0.00,,,0.01,Wunderground v.1.15,2013-04-10 16:40:00,
2013-04-10 13:50:00,39.1,37.0,30.01,SW,229,1.0,22.0,92,0.00,,,0.01,Wunderground v.1.15,2013-04-10 16:50:00,
2013-04-10 14:00:00,39.6,37.5,30.01,West,267,1.0,22.0,92,0.00,,,0.01,Wunderground v.1.15,2013-04-10 17:00:00,
2013-04-10 14:10:00,40.3,37.9,30.01,WSW,243,0.0,22.0,91,0.00,,,0.01,Wunderground v.1.15,2013-04-10 17:10:00,
2013-04-10 14:20:00,40.4,37.7,30.01,NW,304,1.0,1.0,90,0.00,,,0.01,Wunderground v.1.15,2013-04-10 17:20:00,
2013-04-10 14:30:00,40.2,37.2,30.02,West,272,1.0,22.0,89,0.00,,,0.01,Wunderground v.1.15,2013-04-10 17:30:00,
2013-04-10 14:40:00,40.2,37.2,30.02,SW,231,1.0,22.0,89,0.00,,,0.01,Wunderground v.1.15,2013-04-10 17:40:00,
2013-04-10 14:50:00,40.5,37.8,30.02,WSW,250,1.0,22.0,90,0.00,,,0.01,Wunderground v.1.15,2013-04-10 17:50:00,
2013-04-10 15:00:00,40.9,37.9,30.02,West,270,1.0,22.0,89,0.00,,,0.01,Wunderground v.1.15,2013-04-10 18:00:00,
2013-04-10 15:10:00,40.8,37.5,30.03,WNW,284,1.0,22.0,88,0.00,,,0.01,Wunderground v.1.15,2013-04-10 18:10:00,
2013-04-10 15:20:00,40.6,37.0,30.02,West,277,1.0,22.0,87,0.00,,,0.01,Wunderground v.1.15,2013-04-10 18:20:00,
2013-04-10 15:30:00,40.9,37.6,30.02,WSW,239,1.0,22.0,88,0.00,,,0.01,Wunderground v.1.15,2013-04-10 18:30:00,
2013-04-10 15:40:00,41.3,37.7,30.02,West,276,1.0,22.0,87,0.00,,,0.01,Wunderground v.1.15,2013-04-10 18:40:00,
2013-04-10 15:50:00,41.2,37.6,30.02,West,267,2.0,2.0,87,0.00,,,0.01,Wunderground v.1.15,2013-04-10 18:50:00,
2013-04-10 16:00:00,41.3,37.4,30.01,North,355,1.0,22.0,86,0.00,,,0.01,Wunderground v.1.15,2013-04-10 19:00:00,
2013-04-10 16:10:00,41.2,37.0,30.01,SW,236,2.0,22.0,85,0.00,,,0.01,Wunderground v.1.15,2013-04-10 19:10:00,
2013-04-10 16:20:00,42.0,37.2,30.01,NW,308,1.0,22.0,83,0.00,,,0.01,Wunderground v.1.15,2013-04-10 19:20:00,
2013-04-10 16:30:00,42.1,37.0,30.01,NNW,348,2.0,22.0,82,0.00,,,0.01,Wunderground v.1.15,2013-04-10 19:30:00,
2013-04-10 16:40:00,41.6,36.5,30.02,NW,319,2.0,22.0,82,0.00,,,0.01,Wunderground v.1.15,2013-04-10 19:40:00,
2013-04-10 16:50:00,41.0,35.9,30.01,NW,316,3.0,3.0,82,0.00,,,0.01,Wunderground v.1.15,2013-04-10 19:50:00,
2013-04-10 17:00:00,41.7,36.3,30.01,NNW,344,2.0,22.0,81,0.00,,,0.01,Wunderground v.1.15,2013-04-10 20:00:00,
2013-04-10 17:10:00,42.2,36.5,30.01,NW,308,1.0,22.0,80,0.00,,,0.01,Wunderground v.1.15,2013-04-10 20:10:00,
2013-04-10 17:20:00,42.3,36.3,30.01,NE,51,2.0,2.0,79,0.00,,,0.01,Wunderground v.1.15,2013-04-10 20:20:00,
2013-04-10 17:30:00,42.8,37.1,30.01,WNW,287,1.0,22.0,80,0.00,,,0.01,Wunderground v.1.15,2013-04-10 20:30:00,
2013-04-10 17:40:00,41.4,35.7,30.02,NNW,333,2.0,22.0,80,0.00,,,0.01,Wunderground v.1.15,2013-04-10 20:40:00,
2013-04-10 17:50:00,40.3,35.2,30.02,NNW,338,2.0,2.0,82,0.00,,,0.01,Wunderground v.1.15,2013-04-10 20:50:00,
2013-04-10 18:00:00,40.0,35.6,30.03,WSW,240,2.0,2.0,84,0.00,,,0.01,Wunderground v.1.15,2013-04-10 21:00:00,
2013-04-10 18:10:00,39.8,35.4,30.02,NW,304,1.0,1.0,84,0.00,,,0.01,Wunderground v.1.15,2013-04-10 21:10:00,
2013-04-10 18:20:00,40.0,35.6,30.02,NW,311,0.0,22.0,84,0.00,,,0.01,Wunderground v.1.15,2013-04-10 21:20:00,
2013-04-10 18:30:00,39.9,35.5,30.03,NW,320,1.0,22.0,84,0.00,,,0.01,Wunderground v.1.15,2013-04-10 21:30:00,
2013-04-10 18:40:00,39.7,35.3,30.03,WSW,240,1.0,1.0,84,0.00,,,0.01,Wunderground v.1.15,2013-04-10 21:40:00,
2013-04-10 18:50:00,39.5,35.1,30.03,WSW,255,1.0,1.0,84,0.00,,,0.01,Wunderground v.1.15,2013-04-10 21:50:00,
2013-04-10 19:00:00,39.2,35.1,30.03,WSW,242,0.0,22.0,85,0.00,,,0.01,Wunderground v.1.15,2013-04-10 22:00:00,
2013-04-10 19:10:00,39.1,35.0,30.02,WSW,240,0.0,22.0,85,0.00,,,0.01,Wunderground v.1.15,2013-04-10 22:10:00,
2013-04-10 19:20:00,39.1,35.3,30.02,SSW,200,0.0,22.0,86,0.00,,,0.01,Wunderground v.1.15,2013-04-10 22:20:00,
2013-04-10 19:30:00,38.9,35.1,30.02,SW,226,0.0,22.0,86,0.00,,,0.01,Wunderground v.1.15,2013-04-10 22:30:00,
2013-04-10 19:40:00,38.5,35.0,30.02,SW,226,0.0,22.0,87,0.00,,,0.01,Wunderground v.1.15,2013-04-10 22:40:00,
2013-04-10 19:50:00,38.1,34.6,30.02,SW,215,0.0,22.0,87,0.00,,,0.01,Wunderground v.1.15,2013-04-10 22:50:00,
2013-04-10 20:00:00,37.3,34.1,30.02,SW,216,0.0,22.0,88,0.00,,,0.01,Wunderground v.1.15,2013-04-10 23:00:00,
2013-04-10 20:10:00,36.4,33.2,30.02,SW,215,0.0,22.0,88,0.00,,,0.01,Wunderground v.1.15,2013-04-10 23:10:00,
2013-04-10 20:20:00,35.5,32.9,30.03,SW,215,0.0,22.0,90,0.00,,,0.01,Wunderground v.1.15,2013-04-10 23:20:00,
2013-04-10 20:30:00,35.0,32.6,30.02,SW,215,0.0,22.0,91,0.00,,,0.01,Wunderground v.1.15,2013-04-10 23:30:00,
2013-04-10 20:40:00,34.2,31.8,30.03,SW,215,0.0,22.0,91,0.00,,,0.01,Wunderground v.1.15,2013-04-10 23:40:00,
2013-04-10 20:50:00,33.6,31.5,30.03,SW,215,0.0,22.0,92,0.00,,,0.01,Wunderground v.1.15,2013-04-10 23:50:00,
2013-04-10 21:00:00,32.8,30.7,30.03,SW,215,0.0,22.0,92,0.00,,,0.01,Wunderground v.1.15,2013-04-11 00:00:00,
2013-04-10 21:10:00,32.2,30.1,30.03,SW,215,0.0,22.0,92,0.00,,,0.01,Wunderground v.1.15,2013-04-11 00:10:00,
2013-04-10 21:20:00,32.1,30.3,30.02,SSW,204,0.0,22.0,93,0.00,,,0.01,Wunderground v.1.15,2013-04-11 00:20:00,
2013-04-10 21:30:00,31.8,30.0,30.03,SSW,204,0.0,22.0,93,0.00,,,0.01,Wunderground v.1.15,2013-04-11 00:30:00,
2013-04-10 21:40:00,30.7,28.9,30.03,SSW,195,0.0,22.0,93,0.00,,,0.01,Wunderground v.1.15,2013-04-11 00:40:00,
2013-04-10 21:50:00,30.9,29.6,30.03,South,187,1.0,1.0,95,0.00,,,0.01,Wunderground v.1.15,2013-04-11 00:50:00,
2013-04-10 22:00:00,31.6,30.3,30.03,South,174,1.0,1.0,95,0.00,,,0.01,Wunderground v.1.15,2013-04-11 01:00:00,
2013-04-10 22:10:00,32.2,30.9,30.04,South,174,0.0,22.0,95,0.00,,,0.01,Wunderground v.1.15,2013-04-11 01:10:00,
2013-04-10 22:20:00,31.9,30.6,30.04,South,174,0.0,22.0,95,0.00,,,0.01,Wunderground v.1.15,2013-04-11 01:20:00,
2013-04-10 22:30:00,31.6,30.3,30.05,South,175,0.0,22.0,95,0.00,,,0.01,Wunderground v.1.15,2013-04-11 01:30:00,
2013-04-10 22:40:00,31.3,30.0,30.04,South,175,0.0,22.0,95,0.00,,,0.01,Wunderground v.1.15,2013-04-11 01:40:00,
2013-04-10 22:50:00,31.1,29.8,30.04,South,174,0.0,22.0,95,0.00,,,0.01,Wunderground v.1.15,2013-04-11 01:50:00,
2013-04-10 23:00:00,31.2,29.9,30.05,South,174,0.0,22.0,95,0.00,,,0.01,Wunderground v.1.15,2013-04-11 02:00:00,
2013-04-10 23:10:00,31.5,30.5,30.05,South,175,0.0,22.0,96,0.00,,,0.01,Wunderground v.1.15,2013-04-11 02:10:00,
2013-04-10 23:20:00,32.2,31.2,30.05,South,174,0.0,22.0,96,0.00,,,0.01,Wunderground v.1.15,2013-04-11 02:20:00,
2013-04-10 23:30:00,33.2,32.2,30.04,SW,224,0.0,22.0,96,0.00,,,0.01,Wunderground v.1.15,2013-04-11 02:30:00,
2013-04-10 23:40:00,33.6,32.6,30.04,SSW,209,0.0,22.0,96,0.00,,,0.01,Wunderground v.1.15,2013-04-11 02:40:00,
2013-04-10 23:50:00,33.6,32.3,30.04,SSW,208,0.0,22.0,95,0.00,,,0.01,Wunderground v.1.15,2013-04-11 02:50:00,